Time;durP1;ratioP1;P1;durP2;ratioP2;P2;SDS_P1;SDS_P2;PMS_P1;PMS_P2;Temp;Humidity;BMP_temperature;BMP_pressure;BME280_temperature;BME280_humidity;BME280_pressure;Samples;Min_cycle;Max_cycle;Signal;HPM_P1;HPM_P2
2021/06/28 00:00:57;;;;;;;2.92;2.50;;;;;;;20.26;69.55;100302.38;5014000;28;20041;-71
2021/06/28 00:03:22;;;;;;;3.55;2.80;;;;;;;20.27;70.18;100302.19;5010897;28;20034;-71
2021/06/28 00:05:49;;;;;;;3.08;2.75;;;;;;;20.24;69.81;100301.81;5015057;28;20059;-71
2021/06/28 00:08:14;;;;;;;3.20;2.65;;;;;;;20.22;70.44;100293.16;5027482;28;20518;-70
2021/06/28 00:10:40;;;;;;;2.95;2.58;;;;;;;20.20;70.70;100295.22;5027529;28;20037;-71
2021/06/28 00:13:05;;;;;;;4.78;2.95;;;;;;;20.23;69.71;100289.41;5039534;28;20098;-71
2021/06/28 00:15:37;;;;;;;4.53;3.38;;;;;;;20.27;69.77;100290.63;5011746;28;20042;-71
2021/06/28 00:18:05;;;;;;;3.92;3.33;;;;;;;20.28;69.87;100297.63;5011498;28;20537;-71
2021/06/28 00:20:33;;;;;;;2.92;2.63;;;;;;;20.28;69.59;100294.94;5010705;28;20394;-71
2021/06/28 00:22:58;;;;;;;2.70;2.30;;;;;;;20.26;69.12;100297.00;5011659;28;20506;-71
2021/06/28 00:25:23;;;;;;;2.78;2.50;;;;;;;20.24;69.65;100308.00;5011058;28;20123;-71
2021/06/28 00:27:49;;;;;;;2.50;2.20;;;;;;;20.22;70.45;100301.19;5046561;28;20175;-71
2021/06/28 00:30:19;;;;;;;4.20;2.80;;;;;;;20.15;70.76;100303.94;5019111;28;20354;-71
2021/06/28 00:32:44;;;;;;;3.67;3.05;;;;;;;20.10;71.56;100309.97;5019354;28;20055;-71
2021/06/28 00:35:11;;;;;;;3.05;2.67;;;;;;;20.07;70.63;100304.19;5030404;28;20030;-71
2021/06/28 00:37:38;;;;;;;3.08;2.50;;;;;;;20.08;70.89;100298.63;5012889;28;20030;-71
2021/06/28 00:40:06;;;;;;;3.10;2.70;;;;;;;20.12;70.73;100299.84;5022963;28;20200;-70
2021/06/28 00:42:31;;;;;;;2.80;2.40;;;;;;;20.15;70.98;100306.63;5020323;28;20087;-71
2021/06/28 00:44:57;;;;;;;3.63;3.28;;;;;;;20.13;71.43;100296.09;5010009;28;20116;-71
2021/06/28 00:47:22;;;;;;;3.42;3.05;;;;;;;20.08;71.67;100301.31;5021983;28;20029;-71
2021/06/28 00:49:48;;;;;;;3.22;2.90;;;;;;;20.04;72.04;100301.97;5040920;28;20395;-71
2021/06/28 00:52:13;;;;;;;4.10;3.33;;;;;;;19.98;73.60;100306.34;5011822;28;20030;-72
2021/06/28 00:54:40;;;;;;;3.72;3.33;;;;;;;19.96;72.56;100316.50;5025355;28;20053;-71
2021/06/28 00:57:06;;;;;;;4.10;3.50;;;;;;;19.95;72.83;100309.50;5028433;28;20064;-71
2021/06/28 00:59:32;;;;;;;3.80;3.10;;;;;;;19.94;72.15;100305.97;5028926;28;20449;-71
2021/06/28 01:02:01;;;;;;;2.97;2.67;;;;;;;19.95;72.17;100306.81;5012155;28;20046;-71
2021/06/28 01:04:27;;;;;;;3.38;3.08;;;;;;;19.90;73.84;100299.41;5021494;28;20033;-71
2021/06/28 01:06:52;;;;;;;3.90;3.30;;;;;;;19.85;73.62;100303.78;5013589;28;20553;-71
2021/06/28 01:09:18;;;;;;;4.05;3.03;;;;;;;19.82;73.26;100309.59;5010327;28;20044;-71
2021/06/28 01:11:43;;;;;;;3.60;2.85;;;;;;;19.79;72.85;100305.47;5023683;28;20092;-71
2021/06/28 01:14:08;;;;;;;3.03;2.72;;;;;;;19.79;73.06;100313.53;5013701;28;20052;-72
2021/06/28 01:16:34;;;;;;;2.88;2.53;;;;;;;19.81;72.79;100313.31;5027398;28;20394;-71
2021/06/28 01:19:00;;;;;;;3.70;3.20;;;;;;;19.78;73.33;100311.88;5027057;28;20036;-71
2021/06/28 01:21:28;;;;;;;3.35;3.03;;;;;;;19.75;73.63;100301.56;5009402;28;20499;-71
2021/06/28 01:23:54;;;;;;;3.67;3.20;;;;;;;19.72;73.46;100312.75;5021135;28;20065;-71
2021/06/28 01:26:19;;;;;;;4.40;3.60;;;;;;;19.68;75.42;100309.66;5027802;28;20076;-71
2021/06/28 01:28:44;;;;;;;4.18;3.40;;;;;;;19.67;74.21;100312.56;5029325;28;20092;-71
2021/06/28 01:31:11;;;;;;;4.25;3.70;;;;;;;19.67;74.78;100315.22;5025856;28;20053;-71
2021/06/28 01:33:38;;;;;;;3.25;2.95;;;;;;;19.66;74.41;100313.56;5038045;28;20032;-71
2021/06/28 01:36:03;;;;;;;3.72;3.22;;;;;;;19.64;73.77;100308.44;5022866;28;20462;-71
2021/06/28 01:38:29;;;;;;;3.78;3.10;;;;;;;19.66;73.56;100313.56;5026691;28;20053;-71
2021/06/28 01:40:55;;;;;;;2.90;2.42;;;;;;;19.69;73.49;100311.31;5027289;28;20030;-71
2021/06/28 01:43:23;;;;;;;3.35;2.90;;;;;;;19.72;73.78;100316.25;5028509;28;20029;-71
2021/06/28 01:45:49;;;;;;;3.03;2.63;;;;;;;19.72;73.16;100324.28;5030008;28;20033;-71
2021/06/28 01:48:15;;;;;;;3.10;2.78;;;;;;;19.73;72.98;100320.59;5036593;28;20037;-71
2021/06/28 01:50:41;;;;;;;3.25;2.60;;;;;;;19.73;74.02;100315.22;5024043;28;20387;-71
2021/06/28 01:53:07;;;;;;;3.40;2.80;;;;;;;19.73;74.96;100312.53;5010231;28;20106;-71
2021/06/28 01:55:34;;;;;;;4.47;3.80;;;;;;;19.70;74.02;100312.13;5010948;28;20113;-71
2021/06/28 01:58:01;;;;;;;3.45;2.92;;;;;;;19.70;74.43;100310.28;5009869;28;20030;-71
2021/06/28 02:00:32;;;;;;;3.53;3.00;;;;;;;19.70;74.36;100307.59;5014515;28;20038;-71
2021/06/28 02:03:03;;;;;;;4.47;3.58;;;;;;;19.66;75.50;100313.56;5034095;28;20064;-71
2021/06/28 02:05:33;;;;;;;3.78;3.38;;;;;;;19.67;74.10;100315.22;5014102;28;20038;-71
2021/06/28 02:07:59;;;;;;;3.55;3.00;;;;;;;19.72;74.15;100313.56;5013353;28;20046;-71
2021/06/28 02:10:24;;;;;;;2.90;2.40;;;;;;;19.77;74.64;100309.41;5022032;28;20056;-71
2021/06/28 02:12:50;;;;;;;4.50;3.88;;;;;;;19.72;75.21;100304.69;5030561;28;20045;-71
2021/06/28 02:15:23;;;;;;;3.45;3.15;;;;;;;19.70;74.11;100301.41;5015307;28;20061;-71
2021/06/28 02:17:49;;;;;;;3.83;3.25;;;;;;;19.75;74.39;100308.81;5013335;28;20096;-71
2021/06/28 02:20:15;;;;;;;3.65;3.10;;;;;;;19.77;74.40;100299.50;5020677;28;20034;-71
2021/06/28 02:22:42;;;;;;;3.40;3.10;;;;;;;19.73;75.03;100299.13;5022508;28;20068;-71
2021/06/28 02:25:10;;;;;;;3.80;3.40;;;;;;;19.70;75.57;100301.41;5032460;28;20319;-71
2021/06/28 02:27:36;;;;;;;3.78;3.38;;;;;;;19.67;75.15;100305.31;5031270;28;20121;-71
2021/06/28 02:30:06;;;;;;;3.38;3.05;;;;;;;19.64;75.33;100305.75;5030908;28;20116;-71
2021/06/28 02:32:31;;;;;;;4.43;3.00;;;;;;;19.62;75.13;100291.75;5028336;28;20440;-71
2021/06/28 02:34:56;;;;;;;2.97;2.67;;;;;;;19.63;75.19;100285.31;5050947;28;20032;-71
2021/06/28 02:37:22;;;;;;;3.40;2.90;;;;;;;19.67;75.21;100299.94;5032805;28;20034;-71
2021/06/28 02:39:47;;;;;;;3.60;3.22;;;;;;;19.64;75.70;100292.34;5030166;28;20038;-71
2021/06/28 02:42:12;;;;;;;3.60;3.00;;;;;;;19.60;75.07;100288.44;5031051;28;20050;-71
2021/06/28 02:44:38;;;;;;;3.85;3.03;;;;;;;19.60;75.59;100280.41;5030227;28;20041;-71
2021/06/28 02:47:03;;;;;;;3.20;2.90;;;;;;;19.63;75.95;100282.63;5032956;28;20473;-71
2021/06/28 02:49:29;;;;;;;3.10;2.80;;;;;;;19.62;75.50;100281.00;5039197;28;20036;-71
2021/06/28 02:51:54;;;;;;;3.35;3.00;;;;;;;19.59;75.69;100272.56;5020232;28;20040;-71
2021/06/28 02:54:19;;;;;;;3.00;2.70;;;;;;;19.61;75.42;100278.53;5021537;28;20427;-71
2021/06/28 02:56:44;;;;;;;3.10;2.80;;;;;;;19.60;75.19;100277.72;5031543;28;20037;-71
2021/06/28 02:59:12;;;;;;;3.13;2.83;;;;;;;19.59;75.52;100267.19;5026849;28;20125;-71
2021/06/28 03:01:38;;;;;;;3.50;3.08;;;;;;;19.58;76.10;100278.97;5030144;28;20124;-71
2021/06/28 03:04:04;;;;;;;2.95;2.50;;;;;;;19.57;75.55;100264.75;5029334;28;20179;-72
2021/06/28 03:06:29;;;;;;;3.40;2.85;;;;;;;19.63;75.32;100261.19;5025962;28;20040;-71
2021/06/28 03:08:54;;;;;;;3.30;2.75;;;;;;;19.68;75.89;100260.56;5031793;28;20506;-71
2021/06/28 03:11:20;;;;;;;2.90;2.47;;;;;;;19.69;75.80;100264.91;5028445;28;20203;-71
2021/06/28 03:13:47;;;;;;;2.92;2.63;;;;;;;19.72;75.73;100262.59;5023821;28;20072;-71
2021/06/28 03:16:13;;;;;;;3.08;2.60;;;;;;;19.72;75.51;100265.28;5011377;28;20092;-71
2021/06/28 03:18:40;;;;;;;2.95;2.10;;;;;;;19.72;75.17;100261.78;5041765;28;20025;-71
2021/06/28 03:21:07;;;;;;;3.13;2.78;;;;;;;19.70;75.70;100256.63;5046329;28;20486;-71
2021/06/28 03:23:34;;;;;;;2.85;2.47;;;;;;;19.69;75.55;100270.28;5029634;28;20041;-71
2021/06/28 03:26:00;;;;;;;2.60;2.08;;;;;;;19.69;75.16;100257.66;5030918;28;20067;-71
2021/06/28 03:28:25;;;;;;;2.83;2.33;;;;;;;19.71;76.02;100255.59;5016317;28;20117;-71
2021/06/28 03:30:51;;;;;;;2.88;2.50;;;;;;;19.75;76.40;100252.47;5023686;28;20121;-71
2021/06/28 03:33:16;;;;;;;2.72;2.40;;;;;;;19.79;76.07;100243.75;5035213;28;20050;-71
2021/06/28 03:35:42;;;;;;;3.53;2.47;;;;;;;19.84;75.56;100249.28;5019547;28;20048;-71
2021/06/28 03:38:07;;;;;;;3.00;2.70;;;;;;;19.85;76.05;100239.38;5029459;28;20588;-71
2021/06/28 03:40:34;;;;;;;4.13;3.00;;;;;;;19.83;76.57;100242.28;5021401;28;20033;-71
2021/06/28 03:43:05;;;;;;;3.30;3.00;;;;;;;19.80;76.59;100245.41;5011484;28;20411;-71
2021/06/28 03:45:31;;;;;;;3.33;2.78;;;;;;;19.81;76.44;100244.38;5024928;28;20120;-71
2021/06/28 03:47:58;;;;;;;3.83;2.50;;;;;;;19.80;76.41;100250.75;5020560;28;20030;-71
2021/06/28 03:50:23;;;;;;;3.28;2.30;;;;;;;19.83;75.65;100252.19;5019845;28;20048;-71
2021/06/28 03:52:49;;;;;;;2.90;2.60;;;;;;;19.88;75.90;100247.00;5011481;28;20026;-71
2021/06/28 03:55:14;;;;;;;2.85;2.55;;;;;;;19.91;75.93;100241.19;5023142;28;20061;-71
2021/06/28 03:57:40;;;;;;;2.58;2.28;;;;;;;19.93;76.02;100249.84;5030708;28;20061;-71
2021/06/28 04:00:09;;;;;;;2.63;2.33;;;;;;;19.93;75.50;100256.03;5019871;28;20069;-71
2021/06/28 04:02:37;;;;;;;2.35;2.03;;;;;;;19.96;75.49;100253.94;5011189;28;20030;-71
2021/06/28 04:05:04;;;;;;;2.58;2.38;;;;;;;19.94;75.82;100251.47;5020417;28;20065;-71
2021/06/28 04:07:30;;;;;;;2.75;2.25;;;;;;;19.98;75.88;100254.56;5029664;28;20033;-71
2021/06/28 04:09:55;;;;;;;2.85;2.50;;;;;;;19.98;76.11;100257.25;5011305;28;20502;-71
2021/06/28 04:12:21;;;;;;;2.78;2.30;;;;;;;19.99;76.38;100251.63;5046634;28;20056;-71
2021/06/28 04:14:46;;;;;;;2.25;1.92;;;;;;;20.04;75.71;100254.47;5029850;28;20231;-71
2021/06/28 04:17:11;;;;;;;1.95;1.67;;;;;;;20.12;75.18;100253.38;5028087;28;20049;-71
2021/06/28 04:19:37;;;;;;;1.85;1.60;;;;;;;20.22;75.14;100251.00;5013321;28;20040;-71
2021/06/28 04:22:03;;;;;;;2.00;1.70;;;;;;;20.29;75.23;100243.72;5019854;28;20058;-71
2021/06/28 04:24:28;;;;;;;2.33;1.98;;;;;;;20.34;74.95;100243.84;5009648;28;20494;-71
2021/06/28 04:26:53;;;;;;;1.80;1.50;;;;;;;20.39;75.05;100242.38;5026634;28;20452;-71
2021/06/28 04:29:19;;;;;;;2.08;1.42;;;;;;;20.46;74.78;100245.81;5027447;28;20049;-71
2021/06/28 04:31:44;;;;;;;2.40;2.00;;;;;;;20.52;74.48;100245.75;5030103;28;20033;-71
2021/06/28 04:34:09;;;;;;;2.50;2.03;;;;;;;20.58;74.12;100246.72;5031940;28;20053;-71
2021/06/28 04:36:35;;;;;;;1.90;1.60;;;;;;;20.66;74.48;100245.59;5026172;28;20043;-71
2021/06/28 04:39:00;;;;;;;3.30;2.70;;;;;;;20.63;75.31;100243.38;5015178;28;20033;-71
2021/06/28 04:41:25;;;;;;;2.95;2.60;;;;;;;20.60;75.15;100255.38;5029012;28;20192;-71
2021/06/28 04:43:51;;;;;;;2.80;2.33;;;;;;;20.62;74.81;100260.50;5023738;28;20041;-71
2021/06/28 04:46:16;;;;;;;2.10;1.83;;;;;;;20.66;74.84;100259.03;5020486;28;20518;-71
2021/06/28 04:48:41;;;;;;;2.03;1.83;;;;;;;20.70;74.85;100266.41;5039347;28;20049;-71
2021/06/28 04:51:07;;;;;;;2.15;1.90;;;;;;;20.71;74.75;100264.53;5017646;28;20041;-71
2021/06/28 04:53:32;;;;;;;2.80;1.90;;;;;;;20.70;74.72;100258.34;5018260;28;20125;-71
2021/06/28 04:55:57;;;;;;;2.13;1.70;;;;;;;20.70;74.91;100271.78;5012456;28;20109;-71
2021/06/28 04:58:23;;;;;;;2.22;1.85;;;;;;;20.70;74.65;100276.34;5029388;28;20076;-71
2021/06/28 05:00:48;;;;;;;2.00;1.73;;;;;;;20.72;74.63;100275.09;5024201;28;20025;-72
2021/06/28 05:03:14;;;;;;;2.28;1.88;;;;;;;20.78;74.61;100276.03;5028571;28;20050;-71
2021/06/28 05:05:39;;;;;;;2.65;2.25;;;;;;;20.78;75.15;100267.97;5018162;28;20072;-71
2021/06/28 05:08:05;;;;;;;2.38;1.73;;;;;;;20.77;74.75;100256.41;5014002;28;20045;-72
2021/06/28 05:10:31;;;;;;;1.95;1.65;;;;;;;20.86;74.56;100273.06;5014035;28;20033;-71
2021/06/28 05:12:56;;;;;;;1.70;1.30;;;;;;;20.97;74.42;100269.63;5025845;28;20044;-71
2021/06/28 05:15:21;;;;;;;1.70;1.42;;;;;;;21.05;74.34;100268.47;5014054;28;20441;-71
2021/06/28 05:17:47;;;;;;;1.95;1.40;;;;;;;21.15;74.31;100267.94;5015979;28;20029;-71
2021/06/28 05:20:13;;;;;;;2.15;1.70;;;;;;;21.28;73.80;100274.97;5025083;28;20143;-71
2021/06/28 05:22:40;;;;;;;2.13;1.60;;;;;;;21.39;73.80;100275.06;5010250;28;20042;-74
2021/06/28 05:25:07;;;;;;;2.67;1.90;;;;;;;21.57;73.48;100268.81;5021085;28;20311;-71
2021/06/28 05:27:33;;;;;;;2.63;2.30;;;;;;;21.81;72.60;100261.59;5027321;28;20030;-71
2021/06/28 05:29:59;;;;;;;3.65;2.80;;;;;;;21.94;72.78;100257.03;5009490;28;20038;-71
2021/06/28 05:32:26;;;;;;;4.07;2.85;;;;;;;22.12;72.26;100253.38;5028288;28;20029;-71
2021/06/28 05:34:53;;;;;;;4.90;3.47;;;;;;;22.36;71.16;100251.56;5028525;28;20128;-71
2021/06/28 05:37:19;;;;;;;5.55;3.90;;;;;;;22.60;70.35;100255.84;5027047;28;20030;-71
2021/06/28 05:39:46;;;;;;;4.75;3.47;;;;;;;22.71;69.81;100259.53;5013775;28;20034;-71
2021/06/28 05:42:12;;;;;;;3.40;2.50;;;;;;;22.82;70.03;100271.38;5027433;28;20037;-71
2021/06/28 05:44:37;;;;;;;2.95;2.35;;;;;;;22.85;68.13;100287.88;5028831;28;20033;-72
2021/06/28 05:47:03;;;;;;;2.90;2.33;;;;;;;22.86;68.90;100286.00;5035697;28;20043;-71
2021/06/28 05:49:30;;;;;;;3.03;2.35;;;;;;;22.84;68.00;100302.41;5018366;28;20042;-71
2021/06/28 05:51:56;;;;;;;2.75;2.20;;;;;;;22.85;68.13;100304.03;5018810;28;20037;-71
2021/06/28 05:54:21;;;;;;;3.03;2.40;;;;;;;22.97;67.56;100309.41;5030354;28;20075;-71
2021/06/28 05:56:47;;;;;;;2.35;2.05;;;;;;;23.23;67.22;100321.53;5027257;28;20044;-71
2021/06/28 05:59:12;;;;;;;2.60;2.25;;;;;;;23.59;68.38;100318.69;5038959;28;20044;-71
2021/06/28 06:01:37;;;;;;;3.33;2.57;;;;;;;24.05;66.49;100316.78;5029920;28;20029;-71
2021/06/28 06:04:03;;;;;;;2.85;2.55;;;;;;;24.42;64.67;100321.66;5032201;28;20284;-72
2021/06/28 06:06:28;;;;;;;2.90;2.35;;;;;;;24.59;63.73;100317.88;5025298;28;20081;-72
2021/06/28 06:08:53;;;;;;;3.95;2.60;;;;;;;24.90;62.08;100309.34;5019849;28;20044;-72
2021/06/28 06:11:19;;;;;;;3.63;2.40;;;;;;;25.02;61.99;100310.84;5025637;28;20514;-72
2021/06/28 06:13:45;;;;;;;3.42;2.20;;;;;;;24.96;61.58;100313.75;5031470;28;20037;-71
2021/06/28 06:16:11;;;;;;;3.28;2.60;;;;;;;25.24;59.63;100315.44;5032270;28;20167;-71
2021/06/28 06:18:36;;;;;;;5.60;2.63;;;;;;;25.57;59.40;100311.72;5032426;28;20128;-71
2021/06/28 06:21:01;;;;;;;3.00;2.10;;;;;;;25.95;57.75;100318.03;5031271;28;20212;-71
2021/06/28 06:23:27;;;;;;;3.38;2.10;;;;;;;26.22;56.81;100311.75;5031962;28;20068;-72
2021/06/28 06:25:52;;;;;;;2.80;2.00;;;;;;;26.51;57.38;100330.34;5025296;28;20041;-72
2021/06/28 06:28:18;;;;;;;4.35;2.40;;;;;;;26.71;55.50;100316.13;5012070;28;20046;-71
2021/06/28 06:30:43;;;;;;;3.95;2.30;;;;;;;26.86;54.82;100310.75;5028047;28;20034;-72
2021/06/28 06:33:09;;;;;;;4.13;2.33;;;;;;;26.93;54.70;100314.03;5038446;28;20120;-72
2021/06/28 06:35:35;;;;;;;2.92;2.00;;;;;;;27.24;54.88;100314.97;5020658;28;20042;-72
2021/06/28 06:38:00;;;;;;;2.40;1.90;;;;;;;27.62;52.44;100310.13;5030411;28;20044;-72
2021/06/28 06:40:28;;;;;;;2.53;2.22;;;;;;;27.71;52.38;100316.66;5020857;28;20057;-71
2021/06/28 06:42:55;;;;;;;2.35;2.08;;;;;;;27.70;52.34;100316.97;5020312;28;20414;-71
2021/06/28 06:45:22;;;;;;;2.30;1.75;;;;;;;27.52;53.09;100323.72;5024799;28;20033;-72
2021/06/28 06:47:48;;;;;;;3.05;2.10;;;;;;;27.64;52.28;100326.97;5046270;28;20042;-72
2021/06/28 06:50:16;;;;;;;3.70;2.20;;;;;;;28.08;51.80;100323.78;5030338;28;20041;-72
2021/06/28 06:52:43;;;;;;;2.88;1.80;;;;;;;28.49;51.54;100333.78;5015826;28;20037;-72
2021/06/28 06:55:10;;;;;;;2.08;1.70;;;;;;;28.51;50.13;100335.16;5018670;28;20025;-72
2021/06/28 06:57:36;;;;;;;2.45;1.80;;;;;;;28.72;47.77;100341.34;5030451;28;20041;-72
2021/06/28 07:00:04;;;;;;;2.97;2.00;;;;;;;28.33;50.73;100349.28;5029425;28;20046;-73
2021/06/28 07:02:30;;;;;;;3.50;2.00;;;;;;;28.83;50.18;100342.09;5030583;28;20494;-72
2021/06/28 07:04:56;;;;;;;3.40;2.25;;;;;;;29.31;48.98;100355.25;5025922;28;20044;-72
2021/06/28 07:07:22;;;;;;;3.33;2.25;;;;;;;29.37;48.73;100348.69;5024271;28;20119;-72
2021/06/28 07:09:47;;;;;;;2.42;2.00;;;;;;;29.56;47.71;100349.66;5028824;28;20030;-72
2021/06/28 07:12:13;;;;;;;2.60;2.10;;;;;;;29.59;47.46;100351.81;5042899;28;20033;-72
2021/06/28 07:14:38;;;;;;;2.90;2.05;;;;;;;30.02;47.70;100343.06;5029141;28;20048;-72
2021/06/28 07:17:04;;;;;;;2.50;2.00;;;;;;;30.19;47.50;100346.16;5018269;28;20391;-72
2021/06/28 07:19:29;;;;;;;4.00;2.10;;;;;;;29.94;47.62;100343.66;5029257;28;20272;-72
2021/06/28 07:21:55;;;;;;;3.13;1.95;;;;;;;30.43;45.38;100346.22;5028540;28;20056;-72
2021/06/28 07:24:20;;;;;;;2.58;1.88;;;;;;;30.44;44.31;100341.63;5015502;28;21117;-72
2021/06/28 07:26:46;;;;;;;3.50;1.90;;;;;;;30.77;44.81;100344.50;5010534;28;20033;-72
2021/06/28 07:29:11;;;;;;;2.42;1.80;;;;;;;30.59;45.24;100349.63;5017050;28;20046;-72
2021/06/28 07:31:37;;;;;;;3.25;2.00;;;;;;;31.16;44.03;100349.78;5012393;28;20038;-72
2021/06/28 07:34:02;;;;;;;2.78;2.20;;;;;;;31.03;43.85;100354.03;5031471;28;20406;-72
2021/06/28 07:36:27;;;;;;;2.95;2.03;;;;;;;31.29;43.69;100356.41;5024851;28;20041;-72
2021/06/28 07:38:53;;;;;;;2.80;1.63;;;;;;;31.49;42.18;100352.63;5030267;28;20034;-72
2021/06/28 07:41:18;;;;;;;1.80;1.38;;;;;;;31.58;42.39;100345.38;5030845;28;20033;-72
2021/06/28 07:43:44;;;;;;;1.77;1.40;;;;;;;31.79;41.95;100343.13;5016608;28;20038;-72
2021/06/28 07:46:10;;;;;;;2.45;1.67;;;;;;;32.12;40.53;100351.34;5014643;28;20025;-72
2021/06/28 07:48:35;;;;;;;1.92;1.60;;;;;;;31.76;38.15;100351.13;5045946;28;20141;-72
2021/06/28 07:51:01;;;;;;;2.10;1.60;;;;;;;31.46;41.82;100350.47;5025264;28;20033;-72
2021/06/28 07:53:27;;;;;;;2.05;1.70;;;;;;;31.81;42.41;100362.78;5026697;28;20056;-72
2021/06/28 07:55:52;;;;;;;2.58;1.88;;;;;;;32.08;40.50;100351.13;5020579;28;20491;-72
2021/06/28 08:02:08;;;;;;;1.90;1.52;;;;;;;32.45;40.54;100360.34;5011170;28;20560;-72
2021/06/28 08:04:33;;;;;;;2.85;1.63;;;;;;;32.69;38.94;100356.63;5004117;28;20464;-72
2021/06/28 08:06:59;;;;;;;2.90;1.60;;;;;;;32.62;39.36;100362.50;5016051;28;20057;-72
2021/06/28 08:09:24;;;;;;;3.10;1.80;;;;;;;33.09;37.46;100357.75;5023985;28;20091;-72
2021/06/28 08:11:50;;;;;;;2.10;1.63;;;;;;;33.41;38.22;100353.19;5022340;28;20118;-72
2021/06/28 08:14:17;;;;;;;2.60;1.75;;;;;;;33.33;37.34;100357.50;5022971;28;20112;-72
2021/06/28 08:16:43;;;;;;;2.08;1.75;;;;;;;32.86;38.32;100354.06;5025285;28;20071;-72
2021/06/28 08:19:10;;;;;;;1.70;1.40;;;;;;;32.49;40.07;100346.84;5023663;28;20494;-72
2021/06/28 08:21:37;;;;;;;2.15;1.60;;;;;;;32.07;38.69;100343.25;5037614;28;20033;-72
2021/06/28 08:24:05;;;;;;;2.35;1.70;;;;;;;31.67;41.09;100340.84;5017448;28;20042;-72
2021/06/28 08:26:30;;;;;;;2.42;1.90;;;;;;;31.69;39.35;100333.16;5022598;28;20034;-72
2021/06/28 08:28:56;;;;;;;2.10;1.55;;;;;;;31.56;40.76;100327.63;5016485;28;20040;-72
2021/06/28 08:31:22;;;;;;;2.80;1.60;;;;;;;31.91;41.44;100324.31;5023609;28;20091;-72
2021/06/28 08:33:47;;;;;;;2.50;1.80;;;;;;;32.28;40.66;100333.56;5018134;28;20037;-71
2021/06/28 08:36:12;;;;;;;2.42;1.60;;;;;;;32.62;37.48;100337.88;5025506;28;20045;-71
2021/06/28 08:38:38;;;;;;;2.25;1.58;;;;;;;33.07;39.00;100332.59;5020535;28;20043;-72
2021/06/28 08:41:04;;;;;;;1.55;1.20;;;;;;;33.92;39.68;100330.06;5026065;28;20044;-71
2021/06/28 08:43:30;;;;;;;1.90;1.58;;;;;;;34.48;36.95;100336.81;5010716;28;20124;-72
2021/06/28 08:45:55;;;;;;;2.15;1.40;;;;;;;34.80;34.80;100345.03;5026302;28;20042;-72
2021/06/28 08:48:21;;;;;;;2.08;1.60;;;;;;;34.86;33.02;100354.75;5024728;28;20136;-72
2021/06/28 08:50:47;;;;;;;1.90;1.58;;;;;;;34.05;35.92;100362.09;5021556;28;20073;-72
2021/06/28 08:53:14;;;;;;;2.30;1.70;;;;;;;33.81;35.58;100365.16;5025732;28;20029;-72
2021/06/28 08:55:40;;;;;;;2.70;1.67;;;;;;;33.09;35.64;100378.84;5024271;28;20056;-72
2021/06/28 08:58:05;;;;;;;3.25;1.73;;;;;;;31.82;39.10;100375.34;5020699;28;20029;-72
2021/06/28 09:00:31;;;;;;;2.03;1.70;;;;;;;31.07;40.51;100389.78;5026725;28;20029;-71
2021/06/28 09:03:04;;;;;;;2.83;1.75;;;;;;;30.90;41.75;100391.06;5025011;28;20501;-71
2021/06/28 09:05:50;;;;;;;1.83;1.50;;;;;;;30.98;41.31;100391.50;5027904;28;20037;-71
2021/06/28 09:08:17;;;;;;;3.22;2.17;;;;;;;31.05;41.15;100394.72;5030021;28;20032;-72
2021/06/28 09:10:44;;;;;;;3.45;2.03;;;;;;;30.88;42.00;100400.66;5032116;28;20032;-72
2021/06/28 09:13:10;;;;;;;3.03;2.20;;;;;;;31.04;41.48;100391.16;5031306;28;20026;-72
2021/06/28 09:15:48;;;;;;;2.90;2.05;;;;;;;30.76;43.10;100392.03;5033860;28;20040;-72
2021/06/28 09:18:21;;;;;;;3.17;2.40;;;;;;;30.55;42.43;100394.94;5027360;28;20124;-71
2021/06/28 09:20:47;;;;;;;2.95;2.28;;;;;;;30.63;42.85;100391.63;5018647;28;20037;-72
2021/06/28 09:23:26;;;;;;;3.08;2.10;;;;;;;30.26;42.67;100394.97;5027875;28;20402;-71
2021/06/28 09:25:54;;;;;;;2.60;2.13;;;;;;;30.08;43.38;100396.44;5020232;28;20050;-71
2021/06/28 09:28:38;;;;;;;3.55;2.13;;;;;;;30.20;43.54;100387.88;5024122;28;20483;-71
2021/06/28 09:31:03;;;;;;;2.63;2.40;;;;;;;30.17;43.35;100383.00;5018812;28;20045;-72
2021/06/28 09:33:28;;;;;;;3.42;2.45;;;;;;;30.00;43.14;100386.97;5021552;28;20038;-71
2021/06/28 09:35:54;;;;;;;5.13;2.45;;;;;;;29.71;44.23;100395.09;5018916;28;20038;-71
2021/06/28 09:38:33;;;;;;;3.88;2.30;;;;;;;29.61;44.26;100387.78;5018108;28;20042;-71
2021/06/28 09:41:28;;;;;;;2.97;2.17;;;;;;;29.55;44.50;100393.53;5021400;28;20089;-71
2021/06/28 09:44:08;;;;;;;3.50;2.38;;;;;;;29.22;44.94;100384.97;5013327;28;20381;-71
2021/06/28 09:46:35;;;;;;;2.40;1.80;;;;;;;29.30;46.44;100384.41;5019570;28;20448;-71
2021/06/28 09:49:02;;;;;;;2.70;2.17;;;;;;;29.06;46.69;100395.09;5028674;28;20384;-71
2021/06/28 09:51:33;;;;;;;2.88;2.00;;;;;;;29.07;45.84;100383.16;5023011;28;20037;-71
2021/06/28 09:54:08;;;;;;;2.70;1.90;;;;;;;28.93;46.57;100374.72;5031224;28;20026;-71
2021/06/28 09:56:36;;;;;;;3.05;2.30;;;;;;;28.63;46.85;100367.50;5023617;28;20446;-71
2021/06/28 09:59:26;;;;;;;2.53;2.22;;;;;;;28.40;47.24;100359.88;5016412;28;20379;-71
2021/06/28 10:02:18;;;;;;;3.22;2.80;;;;;;;28.19;47.95;100342.78;5023217;28;20033;-71
2021/06/28 10:07:22;;;;;;;2.50;2.08;;;;;;;27.89;47.46;100331.66;5025401;28;20033;-71
2021/06/28 10:10:12;;;;;;;3.33;2.20;;;;;;;27.80;48.25;100314.22;5015009;28;20033;-71
2021/06/28 10:12:40;;;;;;;3.30;2.60;;;;;;;27.48;48.09;100303.59;5000428;28;20026;-71
2021/06/28 10:15:12;;;;;;;4.65;2.83;;;;;;;27.37;48.80;100297.34;5002700;28;20600;-71
2021/06/28 10:17:38;;;;;;;3.40;2.40;;;;;;;27.40;49.02;100294.09;5003882;28;20437;-71
2021/06/28 10:20:10;;;;;;;3.15;2.20;;;;;;;27.47;49.46;100302.78;5015849;28;20046;-71
2021/06/28 10:22:36;;;;;;;2.65;2.22;;;;;;;27.68;48.70;100308.25;5007349;28;20038;-71
2021/06/28 10:25:03;;;;;;;2.35;1.90;;;;;;;27.98;48.19;100310.16;5002836;28;20052;-71
2021/06/28 10:27:28;;;;;;;2.33;2.05;;;;;;;28.33;48.61;100324.81;5011084;28;20048;-71
2021/06/28 10:29:55;;;;;;;3.20;2.90;;;;;;;28.56;47.55;100326.97;5011125;28;20038;-71
2021/06/28 10:32:21;;;;;;;3.63;3.10;;;;;;;28.79;46.42;100327.41;5007598;28;20328;-71
2021/06/28 10:34:52;;;;;;;2.58;2.25;;;;;;;28.60;47.73;100329.94;5017134;28;20172;-71
2021/06/28 10:37:30;;;;;;;2.58;2.35;;;;;;;29.17;47.26;100323.19;5006278;28;20651;-71
2021/06/28 10:39:57;;;;;;;4.75;2.72;;;;;;;29.55;45.81;100322.69;5003701;28;20439;-71
2021/06/28 10:42:35;;;;;;;3.28;2.85;;;;;;;29.30;46.76;100320.97;5002965;28;20050;-71
2021/06/28 10:45:01;;;;;;;2.65;2.20;;;;;;;29.48;47.24;100322.19;5009901;28;20070;-71
2021/06/28 10:47:28;;;;;;;3.05;2.58;;;;;;;29.85;46.54;100302.59;5016352;28;20037;-72
2021/06/28 10:49:54;;;;;;;2.80;2.30;;;;;;;30.09;47.51;100301.84;5010670;28;20049;-71
2021/06/28 10:52:37;;;;;;;4.18;3.20;;;;;;;30.29;45.38;100304.38;5008076;28;20034;-71
2021/06/28 10:55:19;;;;;;;3.90;3.13;;;;;;;30.15;44.84;100300.66;5020244;28;20026;-71
2021/06/28 10:57:49;;;;;;;3.35;3.03;;;;;;;29.74;45.19;100303.78;5001988;28;20034;-71
2021/06/28 11:00:15;;;;;;;3.90;2.70;;;;;;;29.43;46.43;100282.97;5001008;28;20037;-72
2021/06/28 11:02:42;;;;;;;3.42;2.65;;;;;;;29.52;46.93;100285.94;5001537;28;20132;-71
2021/06/28 11:05:10;;;;;;;3.20;2.53;;;;;;;29.53;46.61;100294.91;5004780;28;20035;-71
2021/06/28 11:07:48;;;;;;;3.53;2.70;;;;;;;29.34;48.18;100298.31;5016119;28;20052;-71
2021/06/28 11:10:16;;;;;;;3.00;2.70;;;;;;;29.23;49.37;100301.41;5004483;28;20030;-71
2021/06/28 11:12:41;;;;;;;3.15;2.60;;;;;;;29.24;48.59;100292.91;5011409;28;20064;-71
2021/06/28 11:15:19;;;;;;;2.72;2.35;;;;;;;29.46;50.61;100276.16;5009306;28;20045;-71
2021/06/28 11:17:50;;;;;;;2.50;2.30;;;;;;;29.80;49.52;100284.38;5003298;28;20046;-71
2021/06/28 11:20:27;;;;;;;4.00;2.60;;;;;;;30.19;47.96;100291.63;5015658;28;20741;-71
2021/06/28 11:22:54;;;;;;;3.85;2.80;;;;;;;30.30;46.20;100289.66;5003797;28;20096;-71
2021/06/28 11:25:23;;;;;;;3.78;3.08;;;;;;;30.27;45.28;100292.94;5022644;28;20445;-71
2021/06/28 11:27:58;;;;;;;3.58;2.83;;;;;;;30.02;45.70;100283.88;5028148;28;20120;-71
2021/06/28 11:30:29;;;;;;;3.75;3.00;;;;;;;29.99;45.26;100281.75;5029612;28;20025;-71